Time;durP1;ratioP1;P1;durP2;ratioP2;P2;SDS_P1;SDS_P2;PMS_P1;PMS_P2;Temp;Humidity;BMP_temperature;BMP_pressure;BME280_temperature;BME280_humidity;BME280_pressure;Samples;Min_cycle;Max_cycle;Signal;HPM_P1;HPM_P2
2023/09/25 00:00:07;;;;;;;1.17;0.45;;;;;;;22.86;42.90;99108.59;2065084;28;20092;-62
2023/09/25 00:01:09;;;;;;;1.70;0.60;;;;;;;22.84;42.95;99110.69;2066132;28;20054;-63
2023/09/25 00:02:11;;;;;;;2.85;0.47;;;;;;;22.84;42.92;99114.22;2065257;28;20136;-62
2023/09/25 00:03:12;;;;;;;1.52;0.50;;;;;;;22.84;42.90;99103.41;2067680;28;20088;-63
2023/09/25 00:04:14;;;;;;;0.88;0.52;;;;;;;22.84;43.02;99111.53;2067187;28;20069;-63
2023/09/25 00:05:16;;;;;;;0.82;0.40;;;;;;;22.83;42.88;99104.47;2065170;28;20057;-63
2023/09/25 00:06:18;;;;;;;1.58;0.82;;;;;;;22.84;43.05;99105.28;2065787;28;20066;-63
2023/09/25 00:07:19;;;;;;;1.95;0.52;;;;;;;22.86;43.01;99100.50;2067984;28;20085;-63
2023/09/25 00:08:22;;;;;;;1.00;0.40;;;;;;;22.87;42.85;99104.84;2067606;28;20559;-63
2023/09/25 00:09:23;;;;;;;1.88;0.65;;;;;;;22.86;42.76;99095.91;2065726;28;20058;-63
2023/09/25 00:10:25;;;;;;;1.20;0.50;;;;;;;22.86;42.86;99095.09;2065274;28;20078;-63
2023/09/25 00:11:26;;;;;;;2.63;0.57;;;;;;;22.85;42.75;99091.56;2064732;28;20192;-63
2023/09/25 00:12:28;;;;;;;1.45;0.82;;;;;;;22.86;42.79;99098.59;2066125;28;20521;-63
2023/09/25 00:13:29;;;;;;;1.88;0.50;;;;;;;22.86;43.16;99103.19;2061978;28;20046;-62
2023/09/25 00:14:31;;;;;;;1.52;0.90;;;;;;;22.84;43.19;99100.69;2065096;28;20481;-63
2023/09/25 00:15:32;;;;;;;0.45;0.30;;;;;;;22.86;42.98;99098.59;2065571;28;20112;-63
2023/09/25 00:16:34;;;;;;;1.80;1.23;;;;;;;22.84;43.01;99098.00;2067808;28;21877;-63
2023/09/25 00:17:35;;;;;;;0.40;0.40;;;;;;;22.84;43.01;99095.28;2067852;28;20394;-63
2023/09/25 00:18:37;;;;;;;3.33;2.45;;;;;;;22.85;42.67;99101.56;2068264;28;20457;-62
2023/09/25 00:19:38;;;;;;;0.95;0.52;;;;;;;22.84;42.71;99100.69;2064169;28;20100;-62
2023/09/25 00:20:41;;;;;;;0.68;0.47;;;;;;;22.83;42.78;99093.66;2061160;28;20058;-63
2023/09/25 00:21:42;;;;;;;1.65;0.60;;;;;;;22.84;42.94;99089.88;2060869;28;20052;-63
2023/09/25 00:22:43;;;;;;;2.35;0.60;;;;;;;22.86;42.86;99098.59;2067889;28;20495;-63
2023/09/25 00:23:46;;;;;;;1.05;0.40;;;;;;;22.85;42.87;99096.97;2062637;28;20046;-63
2023/09/25 00:24:48;;;;;;;1.85;0.40;;;;;;;22.86;42.86;99104.03;2065258;28;20057;-63
2023/09/25 00:25:50;;;;;;;0.77;0.65;;;;;;;22.85;43.01;99096.97;2060492;28;20535;-63
2023/09/25 00:26:52;;;;;;;2.05;0.82;;;;;;;22.86;43.06;99100.50;2064132;28;20050;-63
2023/09/25 00:27:53;;;;;;;1.52;1.02;;;;;;;22.85;42.91;99094.25;2065229;28;20045;-63
2023/09/25 00:28:55;;;;;;;0.77;0.63;;;;;;;22.84;42.83;99099.88;2064842;28;20107;-63
2023/09/25 00:29:56;;;;;;;1.02;0.70;;;;;;;22.84;42.98;99098.00;2066095;28;20452;-64
2023/09/25 00:30:58;;;;;;;0.75;0.50;;;;;;;22.85;42.93;99102.38;2064566;28;20129;-63
2023/09/25 00:31:59;;;;;;;2.03;0.77;;;;;;;22.84;43.00;99097.16;2066666;28;21795;-63
2023/09/25 00:33:01;;;;;;;0.80;0.50;;;;;;;22.83;42.94;99096.34;2066396;28;20050;-65
2023/09/25 00:34:02;;;;;;;0.77;0.55;;;;;;;22.85;42.82;99096.13;2066427;28;20057;-63
2023/09/25 00:35:05;;;;;;;1.50;0.43;;;;;;;22.85;43.04;99091.56;2067062;28;20050;-63
2023/09/25 00:36:06;;;;;;;0.52;0.40;;;;;;;22.84;43.15;99091.75;2063139;28;20050;-63
2023/09/25 00:37:08;;;;;;;0.68;0.40;;;;;;;22.82;42.94;99089.28;2064321;28;20082;-61
2023/09/25 00:38:09;;;;;;;2.83;0.32;;;;;;;22.83;42.86;99096.34;2063609;28;20088;-63
2023/09/25 00:39:13;;;;;;;0.82;0.32;;;;;;;22.84;42.95;99089.06;2066719;28;20508;-63
2023/09/25 00:40:14;;;;;;;1.17;0.38;;;;;;;22.85;43.03;99098.84;2064237;28;20521;-63
2023/09/25 00:41:16;;;;;;;1.65;0.40;;;;;;;22.86;43.08;99092.38;2064536;28;20049;-63
2023/09/25 00:42:17;;;;;;;1.60;1.05;;;;;;;22.85;43.06;99088.84;2063746;28;20057;-63
2023/09/25 00:43:19;;;;;;;2.40;0.80;;;;;;;22.87;43.09;99088.63;2065159;28;20077;-63
2023/09/25 00:44:19;;;;;;;1.98;0.63;;;;;;;22.93;43.05;99093.16;2065824;28;20081;-63
2023/09/25 00:45:21;;;;;;;2.13;0.50;;;;;;;22.88;43.14;99088.41;2064609;28;20053;-63
2023/09/25 00:46:23;;;;;;;2.63;0.82;;;;;;;22.86;42.95;99093.19;2065139;28;20054;-63
2023/09/25 00:47:25;;;;;;;2.72;0.43;;;;;;;22.86;43.01;99097.78;2066277;28;20092;-63
2023/09/25 00:48:28;;;;;;;1.38;0.60;;;;;;;22.87;43.15;99099.44;2064487;28;20085;-63
2023/09/25 00:49:32;;;;;;;0.85;0.50;;;;;;;22.85;43.09;99090.72;2065134;28;20054;-62
2023/09/25 00:50:34;;;;;;;2.67;0.52;;;;;;;22.83;42.99;99096.34;2056884;28;20118;-63
2023/09/25 00:51:36;;;;;;;1.67;1.05;;;;;;;22.82;42.93;99089.28;2064844;28;20531;-63
2023/09/25 00:52:40;;;;;;;0.50;0.50;;;;;;;22.81;42.82;99089.50;2065782;28;20061;-63
2023/09/25 00:53:45;;;;;;;0.70;0.30;;;;;;;22.79;42.99;99084.31;2067189;28;20421;-63
2023/09/25 00:54:47;;;;;;;1.65;0.47;;;;;;;22.79;42.87;99081.63;2067405;28;20057;-62
2023/09/25 00:55:50;;;;;;;1.20;0.40;;;;;;;22.80;43.03;99082.44;2065331;28;20058;-63
2023/09/25 00:56:51;;;;;;;3.03;0.88;;;;;;;22.78;42.92;99082.66;2064359;28;20544;-62
2023/09/25 00:57:52;;;;;;;0.43;0.40;;;;;;;22.76;42.98;99076.63;2065767;28;20050;-63
2023/09/25 00:58:54;;;;;;;2.95;0.70;;;;;;;22.75;42.82;99070.41;2065677;28;20050;-63
2023/09/25 00:59:56;;;;;;;0.75;0.45;;;;;;;22.77;42.81;99069.38;2067326;28;20414;-63
2023/09/25 01:00:58;;;;;;;1.10;0.50;;;;;;;22.77;42.77;99072.06;2065965;28;20080;-63
2023/09/25 01:01:59;;;;;;;2.58;0.73;;;;;;;22.78;42.88;99069.13;2066966;28;20046;-63
2023/09/25 01:03:01;;;;;;;1.83;0.50;;;;;;;22.79;42.97;99073.50;2064610;28;20092;-62
2023/09/25 01:04:02;;;;;;;1.33;0.45;;;;;;;22.78;42.87;99071.00;2060288;28;20061;-63
2023/09/25 01:05:06;;;;;;;1.35;0.40;;;;;;;22.77;42.90;99067.50;2061995;28;20056;-63
2023/09/25 01:06:07;;;;;;;1.25;0.70;;;;;;;22.78;42.71;99068.31;2063951;28;20100;-62
2023/09/25 01:07:09;;;;;;;1.52;0.70;;;;;;;22.79;42.82;99075.38;2064530;28;20502;-63
2023/09/25 01:08:10;;;;;;;2.10;0.60;;;;;;;22.75;42.69;99067.69;2065761;28;20046;-63
2023/09/25 01:09:13;;;;;;;2.20;0.47;;;;;;;22.77;42.95;99072.91;2064831;28;20144;-63
2023/09/25 01:10:17;;;;;;;0.82;0.50;;;;;;;22.78;42.91;99077.25;2065980;28;20050;-62
2023/09/25 01:11:19;;;;;;;1.35;0.50;;;;;;;22.75;42.81;99073.09;2063339;28;20054;-63
2023/09/25 01:12:20;;;;;;;1.38;0.50;;;;;;;22.75;42.66;99077.69;2064015;28;20057;-63
2023/09/25 01:13:22;;;;;;;0.93;0.65;;;;;;;22.72;42.82;99076.25;2065456;28;20065;-63
2023/09/25 01:14:24;;;;;;;0.73;0.40;;;;;;;22.72;42.80;99081.66;2065551;28;20058;-62
2023/09/25 01:15:26;;;;;;;0.68;0.55;;;;;;;22.73;42.91;99077.06;2064788;28;20509;-63
2023/09/25 01:16:27;;;;;;;0.88;0.52;;;;;;;22.74;42.74;99078.75;2063249;28;20058;-63
2023/09/25 01:17:29;;;;;;;1.88;0.77;;;;;;;22.70;42.88;99072.94;2065445;28;22054;-63
2023/09/25 01:18:30;;;;;;;2.70;0.98;;;;;;;22.70;42.88;99082.91;2065673;28;20057;-63
2023/09/25 01:19:32;;;;;;;0.70;0.70;;;;;;;22.69;42.85;99076.69;2065126;28;20050;-62
2023/09/25 01:20:33;;;;;;;1.13;0.45;;;;;;;22.73;42.77;99080.63;2064215;28;20589;-62
2023/09/25 01:21:36;;;;;;;3.22;0.40;;;;;;;22.72;42.61;99075.44;2063989;28;20074;-63
2023/09/25 01:22:38;;;;;;;0.80;0.43;;;;;;;22.75;42.83;99080.38;2067030;28;20053;-63
2023/09/25 01:23:40;;;;;;;0.50;0.45;;;;;;;22.72;42.81;99083.53;2062898;28;20049;-62
2023/09/25 01:24:41;;;;;;;0.88;0.75;;;;;;;22.72;42.87;99075.44;2064428;28;20042;-63
2023/09/25 01:25:43;;;;;;;1.95;0.60;;;;;;;22.73;42.91;99079.78;2062603;28;20054;-63
2023/09/25 01:26:44;;;;;;;1.00;0.57;;;;;;;22.75;42.90;99086.63;2065581;28;20046;-63
2023/09/25 01:27:47;;;;;;;1.17;0.65;;;;;;;22.75;42.76;99083.91;2066603;28;20070;-63
2023/09/25 01:28:48;;;;;;;1.10;0.35;;;;;;;22.75;42.77;99085.81;2066318;28;20513;-62
2023/09/25 01:29:50;;;;;;;0.63;0.30;;;;;;;22.74;42.71;99078.75;2063803;28;20046;-62
2023/09/25 01:30:53;;;;;;;1.15;0.47;;;;;;;22.74;42.92;99079.56;2062788;28;20053;-63
2023/09/25 01:31:55;;;;;;;1.58;0.50;;;;;;;22.78;42.64;99079.94;2062844;28;20046;-63
2023/09/25 01:32:55;;;;;;;2.25;0.60;;;;;;;22.75;43.02;99077.69;2062776;28;20060;-63
2023/09/25 01:33:57;;;;;;;0.95;0.43;;;;;;;22.74;42.87;99073.34;2064290;28;20161;-63
2023/09/25 01:34:58;;;;;;;0.50;0.50;;;;;;;22.73;42.93;99069.81;2064539;28;20054;-64
2023/09/25 01:36:00;;;;;;;0.95;0.35;;;;;;;22.74;42.77;99073.34;2063173;28;20058;-62
2023/09/25 01:37:04;;;;;;;3.20;0.40;;;;;;;22.76;42.97;99068.53;2062334;28;20042;-63
2023/09/25 01:38:08;;;;;;;4.50;1.05;;;;;;;22.77;42.92;99072.06;2063686;28;20500;-63
2023/09/25 01:39:10;;;;;;;2.63;0.52;;;;;;;22.75;43.02;99069.56;2065079;28;20046;-63
2023/09/25 01:40:13;;;;;;;0.32;0.22;;;;;;;22.74;42.93;99067.94;2061975;28;20220;-63
2023/09/25 01:41:14;;;;;;;1.13;0.55;;;;;;;22.74;43.05;99074.16;2059738;28;20159;-63
2023/09/25 01:42:15;;;;;;;0.32;0.32;;;;;;;22.75;42.96;99066.88;2062030;28;20057;-63
2023/09/25 01:43:17;;;;;;;1.15;0.32;;;;;;;22.77;43.11;99067.50;2065154;28;21801;-63
2023/09/25 01:44:18;;;;;;;1.10;0.43;;;;;;;22.78;43.13;99060.19;2063856;28;20476;-62
2023/09/25 01:45:20;;;;;;;1.13;0.80;;;;;;;22.77;42.99;99059.38;2060714;28;20046;-62
2023/09/25 01:46:21;;;;;;;2.40;0.65;;;;;;;22.76;42.99;99057.69;2063524;28;20061;-62
2023/09/25 01:47:23;;;;;;;0.95;0.47;;;;;;;22.74;43.25;99063.34;2063510;28;20132;-63
2023/09/25 01:48:24;;;;;;;0.68;0.47;;;;;;;22.75;42.91;99062.28;2064191;28;20069;-63
2023/09/25 01:49:26;;;;;;;0.82;0.45;;;;;;;22.78;43.17;99066.44;2061441;28;20049;-63
2023/09/25 01:50:29;;;;;;;1.10;0.60;;;;;;;22.78;43.08;99058.31;2062072;28;20054;-63
2023/09/25 01:51:30;;;;;;;0.55;0.40;;;;;;;22.74;43.27;99059.81;2064065;28;20058;-63
2023/09/25 01:52:32;;;;;;;1.25;0.43;;;;;;;22.74;43.21;99062.53;2062882;28;20062;-63
2023/09/25 01:53:35;;;;;;;0.75;0.50;;;;;;;22.75;43.31;99062.28;2062555;28;20050;-63
2023/09/25 01:54:37;;;;;;;0.60;0.60;;;;;;;22.74;43.17;99067.94;2064405;28;20052;-63
2023/09/25 01:55:39;;;;;;;0.65;0.60;;;;;;;22.74;43.22;99067.94;2065991;28;20416;-63
2023/09/25 01:56:41;;;;;;;1.70;0.40;;;;;;;22.75;43.10;99061.47;2059991;28;20284;-63
2023/09/25 01:57:42;;;;;;;0.50;0.43;;;;;;;22.74;43.03;99062.53;2062630;28;20068;-63
2023/09/25 01:58:44;;;;;;;0.95;0.43;;;;;;;22.73;43.15;99066.25;2061686;28;20128;-63
2023/09/25 01:59:45;;;;;;;0.63;0.43;;;;;;;22.73;43.07;99059.00;2062112;28;20046;-62
2023/09/25 02:00:47;;;;;;;1.33;0.38;;;;;;;22.71;43.03;99060.25;2064907;28;20153;-63
2023/09/25 02:01:48;;;;;;;1.17;0.50;;;;;;;22.71;43.07;99062.97;2064189;28;20062;-63
2023/09/25 02:02:50;;;;;;;0.80;0.70;;;;;;;22.68;42.98;99048.00;2064610;28;20054;-63
2023/09/25 02:03:51;;;;;;;1.50;0.55;;;;;;;22.70;43.04;99061.28;2062981;28;20817;-63
2023/09/25 02:04:53;;;;;;;0.35;0.20;;;;;;;22.72;42.97;99064.59;2061262;28;20121;-63
2023/09/25 02:05:55;;;;;;;1.27;0.55;;;;;;;22.70;42.87;99064.00;2060288;28;20162;-63
2023/09/25 02:06:57;;;;;;;1.85;0.30;;;;;;;22.68;43.11;99064.22;2063289;28;20132;-62
2023/09/25 02:07:58;;;;;;;1.67;0.50;;;;;;;22.68;43.19;99063.41;2063772;28;20066;-63
2023/09/25 02:09:02;;;;;;;1.20;0.57;;;;;;;22.67;42.88;99064.44;2063318;28;20058;-62
2023/09/25 02:10:04;;;;;;;1.00;0.88;;;;;;;22.66;43.05;99069.03;2062254;28;20073;-62
2023/09/25 02:11:06;;;;;;;0.43;0.25;;;;;;;22.64;43.01;99063.00;2060850;28;20063;-62
2023/09/25 02:12:06;;;;;;;1.75;0.50;;;;;;;22.63;42.94;99063.25;2061942;28;20141;-62
2023/09/25 02:13:09;;;;;;;1.75;0.40;;;;;;;22.63;43.14;99064.06;2065387;28;20100;-62
2023/09/25 02:14:10;;;;;;;0.55;0.55;;;;;;;22.60;43.00;99060.97;2060728;28;20046;-62
2023/09/25 02:15:12;;;;;;;1.63;0.60;;;;;;;22.57;43.12;99054.13;2060885;28;20695;-63
2023/09/25 02:16:13;;;;;;;1.38;0.63;;;;;;;22.52;42.68;99065.59;2063553;28;20046;-62
2023/09/25 02:17:14;;;;;;;1.13;0.40;;;;;;;22.52;43.14;99060.19;2061723;28;20069;-62
2023/09/25 02:18:15;;;;;;;;;;;;;;;22.37;42.78;99059.69;2066074;28;20054;-63
2023/09/25 02:19:16;;;;;;;1.23;0.60;;;;;;;22.44;42.87;99060.44;2064131;28;19925;-63
2023/09/25 02:20:20;;;;;;;1.17;0.47;;;;;;;22.50;43.18;99047.94;2062119;28;20168;-63
2023/09/25 02:21:22;;;;;;;1.80;0.43;;;;;;;22.50;42.99;99051.44;2065409;28;20045;-63
2023/09/25 02:22:23;;;;;;;1.27;0.50;;;;;;;22.55;42.94;99052.69;2061983;28;20230;-62
2023/09/25 02:23:25;;;;;;;0.50;0.50;;;;;;;22.52;42.85;99054.78;2063343;28;21108;-62
2023/09/25 02:24:27;;;;;;;0.70;0.50;;;;;;;22.52;42.68;99048.53;2060184;28;20046;-62
2023/09/25 02:25:29;;;;;;;2.80;0.63;;;;;;;22.52;42.74;99052.06;2062750;28;22856;-62
2023/09/25 02:26:30;;;;;;;2.08;0.55;;;;;;;22.51;43.07;99050.44;2061028;28;20712;-62
2023/09/25 02:27:32;;;;;;;0.93;0.50;;;;;;;22.52;42.75;99060.19;2062024;28;20133;-63
2023/09/25 02:28:33;;;;;;;1.33;0.47;;;;;;;22.55;42.79;99052.69;2061784;28;20050;-62
2023/09/25 02:29:35;;;;;;;1.95;0.73;;;;;;;22.58;42.84;99053.06;2062806;28;23474;-62
2023/09/25 02:30:36;;;;;;;2.15;0.60;;;;;;;22.57;42.73;99054.13;2063682;28;20057;-63
2023/09/25 02:31:38;;;;;;;1.63;0.57;;;;;;;22.57;43.28;99053.31;2065360;28;20419;-63
2023/09/25 02:32:41;;;;;;;1.15;0.60;;;;;;;22.58;42.77;99053.06;2063532;28;20054;-63
2023/09/25 02:33:43;;;;;;;1.85;0.60;;;;;;;22.58;42.70;99063.06;2063410;28;20085;-63
2023/09/25 02:34:44;;;;;;;1.00;0.40;;;;;;;22.57;42.73;99054.13;2063987;28;20050;-63
2023/09/25 02:35:46;;;;;;;1.00;0.80;;;;;;;22.57;42.88;99056.00;2062026;28;20072;-62
2023/09/25 02:36:47;;;;;;;0.80;0.40;;;;;;;22.58;42.81;99053.06;2065369;28;20057;-62
2023/09/25 02:37:49;;;;;;;1.20;0.43;;;;;;;22.61;42.90;99054.50;2065626;28;20076;-62
2023/09/25 02:38:50;;;;;;;1.25;0.50;;;;;;;22.59;42.95;99051.19;2064268;28;20046;-62
2023/09/25 02:39:53;;;;;;;3.00;0.60;;;;;;;22.58;42.87;99052.25;2067564;28;20085;-62
2023/09/25 02:40:54;;;;;;;1.58;0.60;;;;;;;22.56;42.87;99057.03;2063827;28;20061;-62
2023/09/25 02:41:56;;;;;;;0.95;0.60;;;;;;;22.55;42.88;99047.28;2059504;28;20054;-62
2023/09/25 02:42:56;;;;;;;0.70;0.70;;;;;;;22.54;43.02;99046.47;2062454;28;20058;-62
2023/09/25 02:43:58;;;;;;;1.00;0.50;;;;;;;22.51;43.05;99047.72;2065442;28;20082;-63
2023/09/25 02:44:59;;;;;;;0.82;0.40;;;;;;;22.55;43.07;99041.88;2062568;28;20728;-63
2023/09/25 02:46:01;;;;;;;0.90;0.80;;;;;;;22.58;42.78;99046.84;2066343;28;20559;-63
2023/09/25 02:47:02;;;;;;;3.60;0.82;;;;;;;22.55;42.79;99041.88;2064307;28;20077;-63
2023/09/25 02:48:05;;;;;;;3.45;0.50;;;;;;;22.55;43.00;99036.47;2065975;28;20536;-63
2023/09/25 02:49:06;;;;;;;3.92;0.55;;;;;;;22.52;43.00;99035.84;2063887;28;20801;-63
2023/09/25 02:50:08;;;;;;;0.98;0.40;;;;;;;22.55;43.05;99042.69;2064094;28;20081;-63
2023/09/25 02:51:10;;;;;;;1.50;0.40;;;;;;;22.52;42.95;99033.16;2061607;28;20052;-63
2023/09/25 02:52:11;;;;;;;1.30;0.55;;;;;;;22.51;42.98;99039.63;2066984;28;20061;-62
2023/09/25 02:53:13;;;;;;;2.13;0.35;;;;;;;22.52;42.88;99033.16;2065391;28;20099;-63
2023/09/25 02:54:14;;;;;;;0.63;0.30;;;;;;;22.55;42.77;99044.56;2062320;28;20505;-63
2023/09/25 02:55:17;;;;;;;1.15;0.93;;;;;;;22.51;42.79;99038.75;2064771;28;20100;-62
2023/09/25 02:56:18;;;;;;;2.05;1.05;;;;;;;22.51;43.01;99042.31;2063934;28;20061;-63
2023/09/25 02:57:20;;;;;;;3.17;0.63;;;;;;;22.51;42.93;99044.16;2060818;28;20132;-63
2023/09/25 02:58:21;;;;;;;1.30;0.63;;;;;;;22.51;42.86;99036.06;2062700;28;20521;-62
2023/09/25 02:59:23;;;;;;;1.45;0.55;;;;;;;22.50;42.90;99040.63;2065527;28;20138;-63
2023/09/25 03:00:24;;;;;;;1.30;0.80;;;;;;;22.51;42.96;99042.31;2067435;28;20077;-63
2023/09/25 03:01:24;;;;;;;1.83;0.77;;;;;;;22.50;42.92;99040.63;2065882;28;20069;-62
2023/09/25 03:02:27;;;;;;;1.13;0.47;;;;;;;22.48;42.99;99040.06;2064615;28;20493;-62
2023/09/25 03:03:28;;;;;;;1.40;0.90;;;;;;;22.50;42.96;99045.22;2068903;28;20514;-62
2023/09/25 03:04:30;;;;;;;0.88;0.77;;;;;;;22.50;42.95;99042.53;2066995;28;20654;-63
2023/09/25 03:05:31;;;;;;;2.28;0.50;;;;;;;22.48;43.06;99045.47;2064954;28;20072;-62
2023/09/25 03:06:33;;;;;;;1.67;0.77;;;;;;;22.49;43.03;99030.88;2060717;28;20137;-62
2023/09/25 03:07:34;;;;;;;4.20;0.57;;;;;;;22.47;42.97;99035.69;2067616;28;20050;-63
2023/09/25 03:08:36;;;;;;;1.13;0.60;;;;;;;22.52;42.97;99032.31;2063566;28;20057;-62
2023/09/25 03:09:37;;;;;;;0.47;0.40;;;;;;;22.48;43.00;99031.94;2066314;28;20536;-62
2023/09/25 03:10:40;;;;;;;0.40;0.30;;;;;;;22.49;42.91;99039.00;2063621;28;20160;-62
2023/09/25 03:11:41;;;;;;;1.83;0.50;;;;;;;22.48;43.00;99037.34;2065904;28;20046;-61
2023/09/25 03:12:43;;;;;;;0.65;0.40;;;;;;;22.47;43.01;99032.16;2060511;28;20133;-63
2023/09/25 03:13:44;;;;;;;1.05;0.57;;;;;;;22.47;43.16;99041.09;2058781;28;20424;-62
2023/09/25 03:14:45;;;;;;;2.53;0.50;;;;;;;22.47;43.14;99035.69;2063961;28;20052;-62
2023/09/25 03:15:47;;;;;;;1.52;0.40;;;;;;;22.46;43.09;99038.63;2064656;28;20630;-63
2023/09/25 03:16:49;;;;;;;1.95;0.38;;;;;;;22.46;43.15;99039.44;2069141;28;20050;-62
2023/09/25 03:17:51;;;;;;;0.85;0.50;;;;;;;22.43;43.11;99034.47;2067963;28;20084;-63
2023/09/25 03:18:52;;;;;;;2.83;0.50;;;;;;;22.44;43.18;99036.13;2066317;28;20045;-63
2023/09/25 03:19:53;;;;;;;0.50;0.30;;;;;;;22.41;43.05;99036.56;2063545;28;20050;-63
2023/09/25 03:20:55;;;;;;;1.38;0.38;;;;;;;22.43;43.12;99039.88;2067952;28;20597;-62
2023/09/25 03:21:55;;;;;;;1.25;0.43;;;;;;;22.41;43.16;99036.56;2067934;28;20053;-63
2023/09/25 03:22:57;;;;;;;0.75;0.30;;;;;;;22.40;43.05;99031.34;2068059;28;20714;-63
2023/09/25 03:23:58;;;;;;;2.80;0.88;;;;;;;22.34;43.21;99035.75;2060458;28;20050;-62
2023/09/25 03:25:00;;;;;;;2.33;0.52;;;;;;;22.36;43.27;99033.69;2066993;28;20431;-62
2023/09/25 03:26:03;;;;;;;1.65;0.60;;;;;;;22.37;43.09;99029.94;2062767;28;20048;-63
2023/09/25 03:27:04;;;;;;;1.45;0.50;;;;;;;22.38;42.99;99036.19;2064421;28;20064;-63
2023/09/25 03:28:06;;;;;;;0.85;0.57;;;;;;;22.38;43.30;99044.28;2067648;28;20140;-63
2023/09/25 03:29:07;;;;;;;0.88;0.43;;;;;;;22.38;43.06;99037.00;2065791;28;20104;-63
2023/09/25 03:30:10;;;;;;;1.60;0.40;;;;;;;22.40;43.12;99042.16;2065873;28;20079;-62
2023/09/25 03:31:11;;;;;;;1.80;1.25;;;;;;;22.39;42.93;99044.03;2063101;28;20046;-62
2023/09/25 03:32:13;;;;;;;1.85;0.57;;;;;;;22.39;43.20;99041.34;2065898;28;20484;-63
2023/09/25 03:33:15;;;;;;;1.05;0.50;;;;;;;22.40;43.08;99032.22;2065808;28;20050;-62
2023/09/25 03:34:17;;;;;;;2.88;0.65;;;;;;;22.47;43.01;99046.50;2069136;28;20096;-62
2023/09/25 03:35:18;;;;;;;3.25;0.65;;;;;;;22.42;43.03;99035.50;2067747;28;20058;-62
2023/09/25 03:36:19;;;;;;;0.80;0.38;;;;;;;22.42;43.21;99043.59;2068471;28;20643;-62
2023/09/25 03:37:20;;;;;;;2.72;0.70;;;;;;;22.42;43.29;99032.78;2067493;28;20505;-62
2023/09/25 03:38:23;;;;;;;2.63;0.88;;;;;;;22.38;43.24;99036.19;2068310;28;20066;-63
2023/09/25 03:39:24;;;;;;;0.68;0.55;;;;;;;22.38;43.16;99030.78;2065895;28;20046;-63
2023/09/25 03:40:26;;;;;;;0.40;0.38;;;;;;;22.39;43.21;99033.25;2061578;28;20413;-62
2023/09/25 03:41:29;;;;;;;0.98;0.52;;;;;;;22.40;43.21;99032.22;2064445;28;20141;-62
2023/09/25 03:42:30;;;;;;;0.60;0.40;;;;;;;22.41;43.20;99035.75;2067561;28;20988;-62
2023/09/25 03:43:31;;;;;;;1.50;0.73;;;;;;;22.42;43.12;99029.28;2062680;28;20542;-62
2023/09/25 03:44:33;;;;;;;0.68;0.50;;;;;;;22.40;43.04;99039.47;2063110;28;20137;-61
2023/09/25 03:45:34;;;;;;;2.00;0.35;;;;;;;22.39;43.07;99030.53;2064312;28;20410;-62
2023/09/25 03:46:37;;;;;;;0.90;0.60;;;;;;;22.41;43.09;99036.56;2067015;28;20141;-62
2023/09/25 03:47:38;;;;;;;1.00;0.90;;;;;;;22.43;43.00;99029.06;2068080;28;20045;-62
2023/09/25 03:48:40;;;;;;;1.92;0.35;;;;;;;22.41;43.30;99031.16;2066729;28;20046;-62
2023/09/25 03:49:42;;;;;;;2.20;0.85;;;;;;;22.44;43.17;99033.41;2062885;28;20587;-63
2023/09/25 03:50:44;;;;;;;2.17;0.73;;;;;;;22.43;43.23;99034.47;2066158;28;20077;-62
2023/09/25 03:51:45;;;;;;;1.85;0.65;;;;;;;22.42;43.17;99031.97;2069854;28;20048;-62
2023/09/25 03:52:47;;;;;;;2.35;0.80;;;;;;;22.42;43.44;99031.97;2068054;28;20092;-62
2023/09/25 03:53:48;;;;;;;1.48;0.85;;;;;;;22.44;43.22;99032.59;2066753;28;20049;-62
2023/09/25 03:54:50;;;;;;;3.30;0.88;;;;;;;22.42;43.28;99038.19;2069633;28;20350;-62
2023/09/25 03:55:51;;;;;;;0.55;0.55;;;;;;;22.43;43.31;99049.88;2063944;28;20069;-62
2023/09/25 03:56:54;;;;;;;2.50;0.75;;;;;;;22.44;43.32;99046.94;2062667;28;20060;-63
2023/09/25 03:57:55;;;;;;;0.65;0.32;;;;;;;22.44;43.35;99046.09;2062845;28;20041;-63
2023/09/25 03:58:57;;;;;;;0.80;0.38;;;;;;;22.43;43.38;99039.88;2065492;28;20077;-62
2023/09/25 03:59:58;;;;;;;0.95;0.75;;;;;;;22.46;43.23;99050.25;2066890;28;20057;-63
2023/09/25 04:01:00;;;;;;;1.40;0.60;;;;;;;22.45;43.28;99048.56;2066578;28;20136;-62
2023/09/25 04:02:01;;;;;;;0.75;0.50;;;;;;;22.43;43.25;99036.34;2063734;28;21385;-62
2023/09/25 04:03:03;;;;;;;0.60;0.40;;;;;;;22.41;43.29;99041.97;2067185;28;20054;-62
2023/09/25 04:04:06;;;;;;;1.23;0.60;;;;;;;22.42;43.26;99037.38;2066453;28;20559;-63
2023/09/25 04:05:09;;;;;;;0.88;0.50;;;;;;;22.40;43.38;99040.31;2065170;28;20073;-62
2023/09/25 04:06:10;;;;;;;2.40;0.60;;;;;;;22.37;43.47;99035.34;2060790;28;20078;-62
2023/09/25 04:07:12;;;;;;;0.80;0.60;;;;;;;22.38;43.41;99042.41;2066329;28;20046;-62
2023/09/25 04:08:13;;;;;;;0.57;0.30;;;;;;;22.36;43.41;99038.25;2068956;28;20057;-62
2023/09/25 04:09:15;;;;;;;2.63;0.40;;;;;;;22.34;43.56;99035.75;2067144;28;20081;-62
2023/09/25 04:10:16;;;;;;;1.83;0.55;;;;;;;22.36;43.41;99033.69;2064496;28;20765;-62
2023/09/25 04:11:18;;;;;;;0.75;0.35;;;;;;;22.33;43.46;99036.81;2065215;28;20129;-63
2023/09/25 04:12:20;;;;;;;1.35;0.60;;;;;;;22.37;43.41;99039.91;2058990;28;20050;-62
2023/09/25 04:13:22;;;;;;;2.47;0.73;;;;;;;22.37;43.57;99038.06;2064977;28;20065;-63
2023/09/25 04:14:23;;;;;;;1.05;0.45;;;;;;;22.37;43.70;99046.16;2064347;28;20045;-62
2023/09/25 04:15:25;;;;;;;0.63;0.60;;;;;;;22.36;43.30;99038.25;2062204;28;20073;-62
2023/09/25 04:16:28;;;;;;;2.35;0.85;;;;;;;22.32;43.46;99035.19;2064109;28;20050;-62
2023/09/25 04:17:31;;;;;;;2.42;0.80;;;;;;;22.29;43.55;99039.13;2061755;28;20049;-63
2023/09/25 04:18:34;;;;;;;1.85;0.70;;;;;;;22.25;43.55;99039.78;2066964;28;20509;-62
2023/09/25 04:19:35;;;;;;;1.75;0.50;;;;;;;22.30;43.39;99045.38;2065346;28;20128;-62
2023/09/25 04:20:38;;;;;;;2.60;0.60;;;;;;;22.28;43.59;99047.44;2064974;28;20657;-62
2023/09/25 04:21:40;;;;;;;0.63;0.47;;;;;;;22.28;43.45;99048.28;2064838;28;20050;-63
2023/09/25 04:22:41;;;;;;;0.45;0.35;;;;;;;22.29;43.58;99046.44;2065440;28;20057;-62
2023/09/25 04:23:43;;;;;;;0.50;0.40;;;;;;;22.30;43.65;99045.38;2060256;28;26431;-63
2023/09/25 04:24:44;;;;;;;1.85;0.45;;;;;;;22.30;43.31;99056.16;2058787;28;20042;-62
2023/09/25 04:25:52;;;;;;;0.28;0.28;;;;;;;22.30;43.62;99053.47;2059868;28;20130;-62
2023/09/25 04:26:53;;;;;;;2.50;0.43;;;;;;;22.30;43.56;99053.47;2060232;28;20065;-63
2023/09/25 04:27:57;;;;;;;1.90;0.68;;;;;;;22.31;43.45;99055.13;2063685;28;20053;-63
2023/09/25 04:28:58;;;;;;;1.27;0.45;;;;;;;22.27;43.67;99057.44;2062274;28;20202;-63
2023/09/25 04:29:58;;;;;;;3.10;0.77;;;;;;;22.29;43.54;99058.06;2059109;28;20409;-62
2023/09/25 04:31:05;;;;;;;0.85;0.45;;;;;;;22.29;43.30;99063.47;2063441;28;20407;-62
2023/09/25 04:32:07;;;;;;;1.10;0.50;;;;;;;22.24;43.75;99059.75;2063795;28;20121;-62
2023/09/25 04:33:09;;;;;;;0.30;0.20;;;;;;;22.26;43.49;99065.78;2066338;28;20054;-62
2023/09/25 04:34:10;;;;;;;2.58;0.60;;;;;;;22.28;43.63;99069.06;2063409;28;20049;-63
2023/09/25 04:35:12;;;;;;;1.42;0.60;;;;;;;22.28;43.52;99072.59;2063826;28;20064;-62
2023/09/25 04:36:14;;;;;;;1.88;0.50;;;;;;;22.29;43.44;99074.25;2062614;28;20043;-62
2023/09/25 04:37:16;;;;;;;2.53;0.85;;;;;;;22.29;43.69;99068.03;2065600;28;20046;-63
2023/09/25 04:38:18;;;;;;;0.95;0.50;;;;;;;22.30;43.52;99072.38;2066737;28;20050;-62
2023/09/25 04:39:20;;;;;;;0.57;0.47;;;;;;;22.34;43.48;99067.38;2068018;28;20130;-62
2023/09/25 04:40:30;;;;;;;1.00;0.70;;;;;;;22.33;43.50;99065.72;2058310;28;22053;-62
2023/09/25 04:41:31;;;;;;;2.05;0.38;;;;;;;22.31;43.52;99068.63;2063647;28;20493;-62
2023/09/25 04:42:33;;;;;;;0.90;0.65;;;;;;;22.30;43.55;99066.97;2064933;28;20137;-62
2023/09/25 04:43:36;;;;;;;1.05;0.35;;;;;;;22.27;43.77;99073.66;2067254;28;20421;-63
2023/09/25 04:44:38;;;;;;;2.83;0.52;;;;;;;22.32;43.54;99074.88;2060598;28;20052;-63
2023/09/25 04:45:39;;;;;;;0.50;0.50;;;;;;;22.30;43.58;99072.38;2066885;28;20080;-62
2023/09/25 04:46:41;;;;;;;1.58;0.50;;;;;;;22.30;43.38;99070.50;2066481;28;20100;-62
2023/09/25 04:47:42;;;;;;;2.10;1.10;;;;;;;22.32;43.44;99073.00;2065211;28;20054;-62
2023/09/25 04:48:44;;;;;;;0.88;0.43;;;;;;;22.30;43.66;99073.22;2063855;28;20081;-62
2023/09/25 04:49:45;;;;;;;1.77;0.70;;;;;;;22.29;43.69;99076.16;2064197;28;20065;-63
2023/09/25 04:50:47;;;;;;;1.50;0.50;;;;;;;22.30;43.70;99077.78;2063958;28;20080;-62